createdAt,value
2018-08-23T00:01:33.524Z,21.73
2018-08-23T00:06:39.891Z,21.40
2018-08-23T00:11:46.474Z,21.63
2018-08-23T00:16:49.556Z,22.77
2018-08-23T00:21:52.505Z,22.30
2018-08-23T00:26:57.563Z,20.77
2018-08-23T00:32:03.030Z,23.23
2018-08-23T00:37:06.577Z,22.30
2018-08-23T00:42:11.329Z,21.80
2018-08-23T00:47:14.309Z,22.60
2018-08-23T00:52:20.829Z,22.80
2018-08-23T00:57:23.818Z,24.53
2018-08-23T01:02:26.805Z,24.40
2018-08-23T01:07:31.957Z,24.90
2018-08-23T01:12:58.410Z,25.30
2018-08-23T01:18:14.430Z,24.77
2018-08-23T01:23:17.440Z,23.00
2018-08-23T01:28:20.449Z,25.23
2018-08-23T01:33:23.469Z,27.33
2018-08-23T01:38:26.643Z,27.23
2018-08-23T01:43:29.678Z,24.93
2018-08-23T01:48:32.951Z,26.93
2018-08-23T01:53:37.731Z,28.30
2018-08-23T01:58:40.917Z,31.13
2018-08-23T02:03:44.351Z,25.63
2018-08-23T02:08:47.386Z,25.90
2018-08-23T02:13:50.422Z,26.30
2018-08-23T02:18:53.422Z,28.47
2018-08-23T02:23:56.445Z,28.70
2018-08-23T02:28:59.509Z,27.87
2018-08-23T02:34:02.498Z,29.13
2018-08-23T02:39:09.394Z,31.37
2018-08-23T02:44:12.458Z,29.83
2018-08-23T02:49:16.039Z,28.73
2018-08-23T02:54:19.062Z,30.27
2018-08-23T02:59:22.232Z,34.87
2018-08-23T03:04:27.095Z,30.30
2018-08-23T03:09:35.426Z,30.10
2018-08-23T03:14:39.421Z,31.37
2018-08-23T03:20:03.136Z,28.07
2018-08-23T03:25:12.298Z,31.37
2018-08-23T03:30:16.555Z,32.17
2018-08-23T03:35:19.606Z,32.67
2018-08-23T03:40:22.637Z,30.90
2018-08-23T03:45:28.222Z,31.30
2018-08-23T03:50:35.835Z,34.13
2018-08-23T03:55:38.862Z,34.30
2018-08-23T04:01:00.898Z,35.70
2018-08-23T04:06:22.921Z,31.77
2018-08-23T04:11:25.966Z,34.70
2018-08-23T04:16:30.110Z,33.10
2018-08-23T04:21:33.217Z,30.73
2018-08-23T04:26:37.065Z,36.23
2018-08-23T04:31:41.667Z,34.37
2018-08-23T04:36:44.921Z,34.57
2018-08-23T04:41:49.222Z,35.63
2018-08-23T04:46:52.260Z,34.90
2018-08-23T04:51:55.473Z,36.27
2018-08-23T04:56:59.408Z,33.90
2018-08-23T05:02:02.617Z,32.53
2018-08-23T05:07:05.673Z,32.77
2018-08-23T05:12:08.681Z,32.67
2018-08-23T05:17:11.682Z,34.00
2018-08-23T05:22:14.766Z,30.77
2018-08-23T05:27:17.800Z,30.50
2018-08-23T05:32:20.859Z,30.17
2018-08-23T05:37:23.905Z,29.37
2018-08-23T05:42:49.733Z,32.57
2018-08-23T05:47:52.770Z,33.50
2018-08-23T05:52:55.785Z,35.37
2018-08-23T05:58:12.109Z,31.10
2018-08-23T06:03:15.698Z,37.57
2018-08-23T06:08:18.778Z,37.93
2018-08-23T06:13:21.829Z,38.97
2018-08-23T06:18:25.583Z,41.13
2018-08-23T06:23:57.026Z,41.50
2018-08-23T06:29:00.042Z,39.40
2018-08-23T06:34:03.189Z,38.53
2018-08-23T06:39:06.818Z,37.27
2018-08-23T06:44:09.929Z,39.00
2018-08-23T06:49:12.952Z,41.13
2018-08-23T06:54:15.970Z,40.17
2018-08-23T06:59:19.017Z,38.03
2018-08-23T07:04:22.083Z,37.10
2018-08-23T07:09:25.129Z,38.17
2018-08-23T07:14:28.158Z,36.80
2018-08-23T07:19:33.049Z,36.53
2018-08-23T07:24:49.745Z,33.33
2018-08-23T07:29:55.581Z,33.60
2018-08-23T07:35:15.232Z,32.10
2018-08-23T07:40:19.964Z,33.40
2018-08-23T07:45:23.419Z,33.43
2018-08-23T07:50:26.454Z,34.30
2018-08-23T07:55:29.590Z,31.23
2018-08-23T08:00:39.013Z,32.57
2018-08-23T08:05:43.321Z,31.87
2018-08-23T08:10:46.307Z,29.53
2018-08-23T08:15:49.314Z,29.80
2018-08-23T08:21:02.185Z,29.50
2018-08-23T08:26:05.047Z,29.80
2018-08-23T08:31:08.101Z,29.77
2018-08-23T08:36:11.302Z,29.73
2018-08-23T08:41:14.346Z,30.73
2018-08-23T08:46:17.357Z,30.70
2018-08-23T08:51:26.942Z,29.63
2018-08-23T08:56:35.479Z,29.30
2018-08-23T09:01:38.624Z,29.13
2018-08-23T09:06:43.896Z,28.70
2018-08-23T09:11:47.019Z,30.20
2018-08-23T09:16:50.087Z,33.67
2018-08-23T09:22:04.441Z,31.33
2018-08-23T09:27:16.463Z,32.67
2018-08-23T09:32:25.148Z,34.37
2018-08-23T09:37:29.927Z,29.60
2018-08-23T09:42:34.233Z,35.20
2018-08-23T09:47:37.321Z,34.47
2018-08-23T09:52:45.140Z,34.60
2018-08-23T09:57:48.174Z,38.90
2018-08-23T10:02:56.886Z,36.30
2018-08-23T10:08:08.462Z,39.20
2018-08-23T10:13:17.144Z,40.30
2018-08-23T10:18:26.989Z,42.07
2018-08-23T10:23:30.014Z,40.83
2018-08-23T10:28:38.680Z,40.20
2018-08-23T10:33:41.719Z,40.10
2018-08-23T10:38:46.135Z,37.20
2018-08-23T10:43:49.300Z,35.50
2018-08-23T10:48:52.318Z,33.13
2018-08-23T10:53:55.358Z,32.67
2018-08-23T10:59:00.520Z,29.83
2018-08-23T11:04:04.880Z,29.63
2018-08-23T11:09:13.523Z,29.93
2018-08-23T11:14:22.105Z,29.73
2018-08-23T11:19:30.758Z,31.97
2018-08-23T11:24:34.085Z,29.70
2018-08-23T11:29:37.277Z,29.33
2018-08-23T11:34:40.322Z,29.70
2018-08-23T11:39:43.371Z,31.30
2018-08-23T11:44:46.463Z,32.87
2018-08-23T11:49:49.486Z,32.50
2018-08-23T11:54:52.530Z,29.90
2018-08-23T11:59:55.611Z,27.67
2018-08-23T12:04:58.636Z,25.40
2018-08-23T12:10:01.840Z,25.83
2018-08-23T12:15:05.423Z,18.10
2018-08-23T12:20:09.743Z,13.30
2018-08-23T12:25:13.273Z,18.00
2018-08-23T12:30:16.343Z,13.97
2018-08-23T12:35:19.758Z,10.53
2018-08-23T12:40:28.693Z,10.20
2018-08-23T12:45:31.880Z,12.03
2018-08-23T12:50:35.034Z,8.77
2018-08-23T12:55:38.073Z,7.50
2018-08-23T13:00:42.012Z,8.33
2018-08-23T13:05:45.101Z,8.10
2018-08-23T13:10:48.122Z,8.17
2018-08-23T13:15:51.238Z,8.10
2018-08-23T13:20:54.386Z,7.63
2018-08-23T13:25:58.231Z,7.57
2018-08-23T13:31:01.229Z,7.13
2018-08-23T13:36:04.457Z,6.93
2018-08-23T13:41:07.552Z,7.13
2018-08-23T13:46:10.590Z,6.43
2018-08-23T13:51:13.672Z,7.10
2018-08-23T13:56:16.692Z,7.20
2018-08-23T14:01:24.168Z,6.83
2018-08-23T14:06:27.279Z,7.03
2018-08-23T14:11:30.307Z,6.50
2018-08-23T14:16:33.531Z,7.07
2018-08-23T14:21:36.593Z,9.60
2018-08-23T14:26:39.614Z,9.13
2018-08-23T14:31:43.183Z,8.33
2018-08-23T14:36:46.370Z,7.63
2018-08-23T14:41:49.438Z,8.93
2018-08-23T14:46:58.019Z,9.70
2018-08-23T14:52:01.130Z,11.10
2018-08-23T14:57:10.202Z,12.33
2018-08-23T15:02:13.532Z,12.93
2018-08-23T15:07:16.995Z,12.93
2018-08-23T15:12:20.182Z,17.80
2018-08-23T15:17:23.593Z,15.30
2018-08-23T15:30:33.549Z,13.83
2018-08-23T15:35:36.546Z,14.10
2018-08-23T15:40:39.597Z,11.90
2018-08-23T15:45:43.167Z,11.10
2018-08-23T15:50:46.293Z,11.23
2018-08-23T15:55:49.644Z,10.50
2018-08-23T16:00:52.613Z,12.57
2018-08-23T16:05:55.635Z,10.20
2018-08-23T16:10:58.663Z,8.40
2018-08-23T16:16:07.288Z,8.23
2018-08-23T16:21:10.307Z,8.87
2018-08-23T16:26:13.393Z,7.87
2018-08-23T16:31:16.617Z,7.33
2018-08-23T16:36:19.649Z,7.90
2018-08-23T16:41:22.853Z,7.40
2018-08-23T16:46:26.072Z,7.90
2018-08-23T16:51:29.114Z,7.43
2018-08-23T16:56:32.139Z,7.53
2018-08-23T17:01:35.187Z,7.27
2018-08-23T17:06:38.262Z,6.33
2018-08-23T17:11:41.490Z,6.53
2018-08-23T17:16:50.286Z,6.93
2018-08-23T17:21:53.319Z,6.83
2018-08-23T17:26:56.355Z,7.13
2018-08-23T17:31:59.526Z,7.20
2018-08-23T17:37:02.662Z,8.50
2018-08-23T17:42:06.004Z,7.07
2018-08-23T17:47:09.137Z,6.80
2018-08-23T17:52:12.387Z,6.97
2018-08-23T17:57:15.394Z,6.50
2018-08-23T18:02:19.363Z,6.83
2018-08-23T18:07:22.478Z,8.50
2018-08-23T18:12:25.558Z,9.60
2018-08-23T18:17:28.575Z,12.40
2018-08-23T18:22:31.658Z,13.33
2018-08-23T18:27:34.851Z,14.23
2018-08-23T18:32:37.996Z,13.90
2018-08-23T18:37:40.963Z,14.67
2018-08-23T18:42:44.326Z,14.10
2018-08-23T18:47:47.418Z,13.00
2018-08-23T18:52:50.733Z,14.10
2018-08-23T18:57:53.770Z,14.90
2018-08-23T19:02:57.073Z,16.63
2018-08-23T19:08:00.290Z,15.17
2018-08-23T19:13:03.837Z,15.13
2018-08-23T19:18:07.063Z,15.03
2018-08-23T19:23:10.181Z,15.00
2018-08-23T19:28:13.211Z,13.70
2018-08-23T19:33:16.626Z,14.43
2018-08-23T19:38:19.686Z,14.33
2018-08-23T19:43:22.724Z,14.13
2018-08-23T19:48:25.775Z,14.30
2018-08-23T19:53:28.944Z,14.57
2018-08-23T19:58:31.990Z,14.53
2018-08-23T20:03:35.125Z,15.03
2018-08-23T20:08:38.238Z,14.23
2018-08-23T20:13:41.369Z,13.87
2018-08-23T20:18:44.532Z,13.43
2018-08-23T20:23:47.539Z,12.50
2018-08-23T20:28:50.565Z,14.00
2018-08-23T20:33:53.636Z,13.70
2018-08-23T20:38:56.662Z,14.10
2018-08-23T20:43:59.860Z,12.40
2018-08-23T20:49:02.926Z,13.03
2018-08-23T20:54:07.291Z,13.70
2018-08-23T20:59:10.330Z,13.27
2018-08-23T21:04:13.470Z,14.00
2018-08-23T21:09:16.433Z,14.23
2018-08-23T21:14:21.222Z,13.30
2018-08-23T21:19:24.293Z,14.00
2018-08-23T21:24:27.314Z,13.43
2018-08-23T21:29:30.303Z,14.70
2018-08-23T21:34:34.959Z,14.83
2018-08-23T21:39:38.047Z,14.57
2018-08-23T21:44:41.050Z,14.53
2018-08-23T21:49:44.331Z,14.47
2018-08-23T21:54:47.418Z,13.80
2018-08-23T21:59:50.413Z,14.10
2018-08-23T22:04:54.548Z,13.47
2018-08-23T22:09:57.601Z,13.37
2018-08-23T22:15:00.581Z,13.20
2018-08-23T22:20:03.698Z,13.03
2018-08-23T22:25:06.758Z,13.20
2018-08-23T22:30:09.822Z,13.10
2018-08-23T22:35:12.776Z,15.00
2018-08-23T22:40:15.751Z,14.13
2018-08-23T22:45:18.802Z,13.07
2018-08-23T22:50:21.807Z,13.27
2018-08-23T22:55:24.834Z,13.90
2018-08-23T23:00:33.682Z,13.90
2018-08-23T23:05:36.715Z,13.40
2018-08-23T23:10:39.925Z,13.30
2018-08-23T23:15:42.928Z,13.20
2018-08-23T23:20:45.949Z,13.70
2018-08-23T23:25:48.982Z,13.20
2018-08-23T23:30:51.955Z,12.90
2018-08-23T23:35:54.928Z,12.77
2018-08-23T23:40:57.909Z,12.27
2018-08-23T23:46:00.922Z,12.57
2018-08-23T23:51:04.535Z,12.03
2018-08-23T23:56:07.537Z,11.37
